AirNav   Duncan Aviation - Near you to keep you flying
 
 554 users online  

38CL Riego Flight Strip Airport
Verona, California, USA

GOING TO VERONA?


FAA INFORMATION EFFECTIVE 03 NOVEMBER 2022

Location

FAA Identifier: 38CL
Lat/Long: 38-45-14.6460N 121-33-46.8470W
38-45.244100N 121-33.780783W
38.7540683,-121.5630131
(estimated)
Elevation: 21 ft. / 6 m (estimated)
Variation: 16E (1985)
From city: 3 miles SE of VERONA, CA
Time zone: UTC -8 (UTC -7 during Daylight Saving Time)
Zip code: 95659

Airport Operations

Airport use: Private use. Permission required prior to landing
Activation date: 04/1961
Control tower: no
ARTCC: OAKLAND CENTER
FSS: RANCHO MURIETA FLIGHT SERVICE STATION
Attendance: MON-FRI 0700-1800
ARPT UNATNDD ON HOLS.
Pattern altitude: 821 ft. MSL
Wind indicator: yes
Segmented circle: no

Airport Communications

WX ASOS at SMF (4 nm S): PHONE 916-649-3996
WX AWOS-3 at MCC (9 nm SE): 125.975 (916-641-1272)
WX AWOS-3 at LHM (14 nm NE): 124.25 (916-645-0698)
WX ASOS at SAC (15 nm S): PHONE 916-421-0923
WX AWOS-3 at EDU (17 nm SW): 119.025 (530-754-6839)
WX AWOS-3PT at MHR (17 nm SE): 118.325 (916-366-3371)
WX AWOS-3P at DWA (17 nm SW): 125.775 (530-750-2759)

Nearby radio navigation aids

VOR radial/distance  VOR name  Freq  Var
MCCr288/9.1MC CLELLAN VOR/DME109.2017E
SACr341/18.6SACRAMENTO VORTAC115.2017E
MYVr163/20.7MARYSVILLE VOR/DME110.8016E
ILAr113/28.8WILLIAMS VORTAC114.4018E
HNWr256/38.1HANGTOWN VOR/DME115.5017E

Airport Services

Airframe service: NONE
Powerplant service: NONE
Bottled oxygen: NONE
Bulk oxygen: NONE

Runway Information

Runway 16/34

Dimensions: 2380 x 35 ft. / 725 x 11 m
Surface: asphalt, in good condition
RUNWAY 16  RUNWAY 34
Traffic pattern: leftleft
Displaced threshold: no220 ft.
Markings: basic, in fair conditionbasic, in fair condition
Runway end identifier lights: nono
Obstructions: none15 ft. road, 300 ft. from runway, 6:1 slope to clear
APCH RATIO 34:1 FM DSPLCD THR.

Airport Ownership and Management from official FAA records

Ownership: Privately-owned
Owner: RIEGO ROAD PROPERTIES
4425 RIEGO ROAD
SACRAMENTO, CA 95837
Phone 916-922-9063
ATTN: JON MESSICK
Manager: JUSTIN STAAS
RIEGO ROAD PROPERTIES, 4425 RIEGO ROAD
SACRAMENTO, CA 95837
Phone 916-922-9063

Airport Operational Statistics

Aircraft based on the field: 14
Single engine airplanes: 12
Helicopters: 2
  • ULTRALIGHTS PROHIBITED.
    
Aircraft operations: avg 34/day *
96% local general aviation
4% transient general aviation
* for 12-month period ending 10 April 1991

Additional Remarks

FOR CD CTC NORCAL APCH AT 916-361-6874.
A103 EXTENSIVE AERIAL APPICATION ACFT OPNS.

Instrument Procedures

There are no published instrument procedures at 38CL.

Some nearby airports with instrument procedures:

KSMF - Sacramento International Airport (4 nm S)
KMCC - Mc Clellan Airfield (9 nm SE)
KLHM - Lincoln Regional Airport/Karl Harder Field (14 nm NE)
KSAC - Sacramento Executive Airport (15 nm S)
O41 - Watts-Woodland Airport (15 nm W)
KEDU - University Airport (17 nm SW)
KMHR - Sacramento Mather Airport (17 nm SE)
KDWA - Yolo County Airport (17 nm SW)
 
Loc | Ops | Rwys | IFR | FBO | Links
Com | Nav | Svcs | Stats | Notes

Sonoma Jet Center
 
Area around 38CL (Riego Flight Strip Airport)
 
Road maps at: MapQuest Bing Google
 
Aerial photo
No photo
 
Sectional chart

 
Airport distance calculator
Flying to Riego Flight Strip Airport? Find the distance to fly.

From to 38CL

Sunrise and sunset
Times for 28-Nov-2022
 Local
(UTC-8)
 Zulu
(UTC)
Morning civil twilight06:3414:34
Sunrise07:0415:04
Sunset16:4500:45
Evening civil twilight17:1401:14

Current date and time
Zulu (UTC)  28-Nov-2022 11:13:54
Local (UTC-8)  28-Nov-2022 03:13:54
 
METAR
KSMF 
4nm SW 
280953Z 33005KT 10SM CLR 05/01 A2997 RMK AO2 SLP144 T00500011 $
KMCC 
9nm SE 
281055Z AUTO 36004KT 8SM CLR 04/02 A2997 RMK AO2
KLHM 
14nm NE 
281055Z AUTO 09005KT 10SM CLR 03/01 A2994 RMK AO1
KSAC 
16nm S 
281053Z AUTO 00000KT 10SM CLR 04/02 A2996 RMK AO2 SLP146 T00390017 $
KDWA 
17nm SW 
281055Z AUTO 33005KT 10SM FEW037 FEW045 05/02 A2998 RMK AO2
KMHR 
19nm SE 
281050Z AUTO 00000KT 10SM FEW100 04/02 A2995 RMK A01
TAF
KSMF 
4nm SW 
280521Z 2806/2906 VRB05KT P6SM SCT200 FM281000 VRB03KT 6SM BR SCT150 FM281800 20006KT P6SM SCT120 FM282300 28009KT P6SM BKN100
KMCC 
9nm SE 
280521Z 2806/2906 VRB04KT P6SM SCT200 FM280900 VRB03KT 6SM BR SCT150 FM281800 20006KT P6SM SCT120 FM290000 26006KT P6SM BKN100
KSAC 
16nm S 
280521Z 2806/2906 VRB05KT P6SM SCT200 FM280900 VRB03KT 6SM BR SCT150 FM281800 22006KT P6SM SCT120 FM282300 27009KT P6SM BKN100
KMHR 
19nm SE 
280521Z 2806/2906 VRB04KT P6SM SCT200 FM280900 VRB03KT 6SM BR SCT150 FM281800 20006KT P6SM SCT120 FM290000 25006KT P6SM BKN100
NOTAMs
Click for the latest NOTAMs
NOTAMs are issued by the DoD/FAA and will open in a separate window not controlled by AirNav.

 

 
 

Would you like to see your business listed on this page?

 If your business provides an interesting product or service to pilots, flight crews, aircraft, or users of the Riego Flight Strip Airport, you should consider listing it here.  To start the listing process, click on the button below
 
Add a business
 

Other Pages about Riego Flight Strip Airport

Update a link
 
Copyright © AirNav, LLC. All rights reserved. Privacy Policy  Contact